Time;durP1;ratioP1;P1;durP2;ratioP2;P2;SDS_P1;SDS_P2;PMS_P1;PMS_P2;Temp;Humidity;BMP_temperature;BMP_pressure;BME280_temperature;BME280_humidity;BME280_pressure;Samples;Min_cycle;Max_cycle;Signal;HPM_P1;HPM_P2
2023/10/21 05:46:30;;;;;;;36.40;14.30;;;;;;;14.24;100.00;97112.83;266551;1298;546461;-83
2023/10/21 05:52:32;;;;;;;33.90;13.90;;;;;;;14.30;100.00;97129.56;271665;1281;22387;-82
2023/10/21 05:58:35;;;;;;;40.50;13.00;;;;;;;14.37;100.00;97149.25;271389;1279;444886;-82
2023/10/21 06:04:38;;;;;;;32.20;12.60;;;;;;;14.44;100.00;97162.69;272426;1277;22211;-81
2023/10/21 06:10:44;;;;;;;26.10;11.20;;;;;;;14.51;100.00;97166.06;270056;1279;23335;-81
2023/10/21 06:16:48;;;;;;;28.40;12.20;;;;;;;14.57;100.00;97182.32;271340;1279;22421;-81
2023/10/21 06:22:51;;;;;;;34.20;12.50;;;;;;;14.59;100.00;97187.27;271330;1278;22705;-81
2023/10/21 06:28:53;;;;;;;22.60;10.20;;;;;;;14.70;100.00;97199.19;272220;1279;23338;-81
2023/10/21 06:34:55;;;;;;;29.30;11.00;;;;;;;14.71;100.00;97206.14;273515;1273;22191;-81
2023/10/21 06:40:57;;;;;;;37.40;12.60;;;;;;;14.67;100.00;97217.55;272929;1264;22415;-81
2023/10/21 06:46:59;;;;;;;34.00;13.20;;;;;;;14.68;100.00;97213.87;272664;1272;23303;-82
2023/10/21 06:53:01;;;;;;;31.70;12.90;;;;;;;14.77;100.00;97214.36;272935;1271;23621;-82
2023/10/21 06:59:04;;;;;;;36.60;14.10;;;;;;;14.91;100.00;97233.15;272865;1272;22402;-82
2023/10/21 07:05:09;;;;;;;26.30;10.90;;;;;;;15.01;100.00;97247.23;272948;1271;22215;-82
2023/10/21 07:11:13;;;;;;;31.30;10.70;;;;;;;15.13;100.00;97253.80;272837;1272;23132;-82
2023/10/21 07:17:16;;;;;;;29.20;11.00;;;;;;;15.25;100.00;97264.98;273167;1272;23423;-80
2023/10/21 07:23:18;;;;;;;30.10;11.10;;;;;;;15.34;100.00;97270.86;272898;1272;23330;-81
2023/10/21 07:29:22;;;;;;;23.70;11.10;;;;;;;15.39;100.00;97280.95;272640;1272;22628;-81
2023/10/21 07:35:24;;;;;;;31.70;11.90;;;;;;;15.54;100.00;97294.80;273044;1263;22408;-82
2023/10/21 07:41:25;;;;;;;30.50;11.70;;;;;;;15.61;100.00;97299.58;273106;1273;22420;-81
2023/10/21 07:47:28;;;;;;;36.80;11.10;;;;;;;15.67;100.00;97310.55;273318;1272;22183;-82
2023/10/21 07:53:31;;;;;;;31.30;12.80;;;;;;;15.71;100.00;97331.68;271300;1273;22451;-81
2023/10/21 07:59:34;;;;;;;37.50;13.50;;;;;;;15.78;100.00;97339.73;271752;1268;22536;-82
2023/10/21 08:05:36;;;;;;;29.40;12.00;;;;;;;15.89;100.00;97349.89;272489;1273;22205;-81
2023/10/21 08:11:39;;;;;;;29.40;11.30;;;;;;;16.01;100.00;97368.53;271573;1272;22276;-80
2023/10/21 08:17:45;;;;;;;30.00;10.90;;;;;;;16.14;100.00;97382.01;272222;1272;22295;-82
2023/10/21 08:23:47;;;;;;;30.80;11.10;;;;;;;16.24;100.00;97387.71;272897;1270;23003;-82
2023/10/21 08:29:49;;;;;;;22.30;9.30;;;;;;;16.35;100.00;97395.02;271644;1267;22539;-81
2023/10/21 08:35:51;;;;;;;26.00;9.90;;;;;;;16.50;100.00;97406.70;273743;1266;22910;-81
2023/10/21 08:41:53;;;;;;;27.30;9.90;;;;;;;16.66;100.00;97416.52;273822;1266;23336;-81
2023/10/21 08:47:56;;;;;;;34.00;10.40;;;;;;;16.71;100.00;97422.96;273761;1266;23231;-82
2023/10/21 08:54:05;;;;;;;25.40;10.90;;;;;;;16.80;100.00;97427.51;273765;1266;22241;-81
2023/10/21 09:00:10;;;;;;;27.30;10.30;;;;;;;17.04;100.00;97441.91;273755;1266;23442;-81
2023/10/21 09:06:12;;;;;;;26.30;10.00;;;;;;;17.58;100.00;97447.90;273873;1266;22385;-81
2023/10/21 09:12:14;;;;;;;26.60;9.70;;;;;;;18.01;100.00;97447.92;273672;1266;22349;-81
2023/10/21 09:18:16;;;;;;;21.80;8.40;;;;;;;18.32;100.00;97464.10;273903;1266;22180;-81
2023/10/21 09:24:22;;;;;;;26.70;7.80;;;;;;;18.56;100.00;97473.70;273633;1266;22431;-82
2023/10/21 09:30:27;;;;;;;23.20;6.50;;;;;;;18.81;100.00;97477.45;273353;1266;22374;-81
2023/10/21 09:36:39;;;;;;;22.30;6.70;;;;;;;19.14;100.00;97480.56;273932;1273;23295;-81
2023/10/21 09:42:42;;;;;;;22.70;7.80;;;;;;;19.44;100.00;97494.18;273622;1266;23621;-82
2023/10/21 09:48:45;;;;;;;23.00;8.80;;;;;;;19.60;100.00;97504.60;273839;1266;22242;-81
2023/10/21 09:54:56;;;;;;;29.50;9.30;;;;;;;19.74;100.00;97518.30;273868;1266;23682;-81
2023/10/21 10:01:09;;;;;;;22.80;7.60;;;;;;;19.82;100.00;97523.98;273773;1265;23616;-80
2023/10/21 10:07:12;;;;;;;14.70;5.30;;;;;;;19.88;100.00;97525.84;273727;1266;22348;-80
2023/10/21 10:13:15;;;;;;;12.20;5.00;;;;;;;19.95;100.00;97529.06;274041;1266;22463;-82
2023/10/21 10:19:38;;;;;;;11.60;3.90;;;;;;;20.07;100.00;97536.50;273562;1266;22417;-80
2023/10/21 10:26:00;;;;;;;10.50;3.90;;;;;;;20.25;100.00;97543.53;273783;1266;23509;-81
2023/10/21 10:32:14;;;;;;;12.10;3.20;;;;;;;20.41;100.00;97542.64;273806;1266;22428;-80
2023/10/21 10:38:27;;;;;;;8.40;3.40;;;;;;;20.59;100.00;97543.77;273957;1266;22579;-82
2023/10/21 10:44:30;;;;;;;14.30;4.80;;;;;;;20.86;100.00;97536.95;273774;1266;23753;-80
2023/10/21 10:50:36;;;;;;;19.80;4.70;;;;;;;21.08;100.00;97535.50;273870;1267;22221;-80
2023/10/21 10:56:39;;;;;;;;;;;;;;;21.25;100.00;97544.55;273815;1266;22408;-80
2023/10/21 11:02:44;;;;;;;12.30;3.80;;;;;;;21.42;100.00;97547.48;273724;1266;22473;-81
2023/10/21 11:08:46;;;;;;;6.70;2.60;;;;;;;21.72;100.00;97559.77;273659;1266;22438;-80
2023/10/21 11:14:48;;;;;;;8.20;2.10;;;;;;;21.91;100.00;97565.27;271557;1266;22544;-81
2023/10/21 11:21:10;;;;;;;6.90;2.40;;;;;;;22.02;100.00;97567.81;271936;1266;22517;-81
2023/10/21 11:27:13;;;;;;;10.10;2.90;;;;;;;22.11;100.00;97587.82;271629;1266;25223;-82
2023/10/21 11:33:17;;;;;;;11.60;3.20;;;;;;;22.15;99.55;97609.24;271752;1266;25259;-81
2023/10/21 11:39:21;;;;;;;10.20;2.70;;;;;;;22.19;98.70;97614.02;272056;1266;23241;-82
2023/10/21 11:45:39;;;;;;;7.70;2.10;;;;;;;22.14;97.91;97629.14;271291;1266;22459;-82
2023/10/21 11:51:47;;;;;;;10.60;2.40;;;;;;;21.95;96.31;97634.92;273434;1259;22374;-81
2023/10/21 12:35:48;;;;;;;9.00;2.30;;;;;;;21.26;91.95;97685.50;273818;1266;23192;-81
2023/10/21 12:41:41;;;;;;;5.30;1.60;;;;;;;21.21;90.96;97699.88;273775;1263;22441;-82
2023/10/21 12:47:43;;;;;;;9.10;1.90;;;;;;;21.18;90.18;97708.66;273549;1266;22400;-81
2023/10/21 12:53:46;;;;;;;11.30;2.30;;;;;;;21.11;90.18;97713.38;273712;1266;22198;-81
2023/10/21 12:59:50;;;;;;;10.40;2.80;;;;;;;20.99;89.88;97721.95;273289;1251;25236;-81
2023/10/21 13:05:53;;;;;;;11.60;2.50;;;;;;;20.83;89.92;97735.67;271737;1266;22538;-82
2023/10/21 13:11:55;;;;;;;8.00;2.20;;;;;;;20.67;90.11;97742.05;271487;1266;24681;-78
2023/10/21 13:17:58;;;;;;;4.20;1.40;;;;;;;20.57;90.11;97753.83;271522;1266;22547;-81
2023/10/21 13:24:04;;;;;;;8.70;2.10;;;;;;;20.50;89.94;97764.19;272600;1266;23048;-81
2023/10/21 13:30:10;;;;;;;6.50;2.40;;;;;;;20.47;89.92;97765.83;273610;1266;23295;-81
2023/10/21 13:36:13;;;;;;;12.10;2.30;;;;;;;20.44;89.71;97766.36;272774;1259;22290;-80
2023/10/21 13:42:14;;;;;;;7.70;2.00;;;;;;;20.39;89.79;97772.24;273922;1266;22430;-81
2023/10/21 13:48:20;;;;;;;8.90;2.80;;;;;;;20.33;90.03;97774.35;273977;1266;23837;-80
2023/10/21 13:54:33;;;;;;;;;;;;;;;20.28;90.05;97776.50;273700;1267;22627;-80
2023/10/21 14:00:36;;;;;;;9.20;2.20;;;;;;;20.24;90.08;97783.42;273669;1266;23772;-80
2023/10/21 14:06:39;;;;;;;6.20;2.20;;;;;;;20.18;90.12;97789.56;273727;1266;24051;-81
2023/10/21 14:12:41;;;;;;;10.20;2.80;;;;;;;20.12;90.22;97797.91;273766;1266;22336;-81
2023/10/21 14:18:44;;;;;;;9.20;2.80;;;;;;;20.05;90.61;97801.86;274067;1267;22988;-81
2023/10/21 14:24:46;;;;;;;15.70;3.10;;;;;;;19.96;90.68;97817.06;273795;1266;22216;-81
2023/10/21 14:30:52;;;;;;;10.50;3.20;;;;;;;19.92;90.96;97816.77;274189;1266;22332;-81
2023/10/21 14:36:57;;;;;;;8.00;3.20;;;;;;;19.85;91.30;97815.66;273911;1266;23011;-82
2023/10/21 14:42:59;;;;;;;12.20;4.10;;;;;;;19.70;91.52;97819.09;273800;1266;23635;-82
2023/10/21 14:49:01;;;;;;;15.90;4.70;;;;;;;19.56;92.16;97810.77;273741;1266;22416;-81
2023/10/21 14:55:06;;;;;;;12.60;3.50;;;;;;;19.46;92.81;97811.05;273780;1266;23463;-82
2023/10/21 15:01:09;;;;;;;12.90;4.10;;;;;;;19.35;93.27;97822.14;273628;1266;22350;-81
2023/10/21 15:07:11;;;;;;;14.40;4.30;;;;;;;19.16;94.01;97823.10;273596;1266;23174;-81
2023/10/21 15:13:13;;;;;;;10.00;4.20;;;;;;;18.96;94.74;97812.88;273674;1266;22201;-81
2023/10/21 15:19:18;;;;;;;9.20;3.50;;;;;;;18.68;94.95;97813.39;274066;1267;22363;-81
2023/10/21 15:25:22;;;;;;;12.90;5.20;;;;;;;18.49;96.20;97819.84;273621;1271;22551;-81
2023/10/21 15:31:23;;;;;;;15.20;5.70;;;;;;;18.33;96.92;97834.70;273742;1266;22161;-81
2023/10/21 15:37:26;;;;;;;18.30;5.70;;;;;;;18.14;97.64;97842.36;274004;1266;22653;-82
2023/10/21 15:43:28;;;;;;;19.70;6.50;;;;;;;17.99;98.06;97857.34;273780;1266;22454;-81
2023/10/21 15:49:29;;;;;;;18.30;7.20;;;;;;;17.87;98.84;97866.54;273986;1266;23248;-81
2023/10/21 15:55:40;;;;;;;17.20;9.00;;;;;;;17.79;99.56;97872.13;274119;1270;22168;-82
2023/10/21 16:01:42;;;;;;;26.70;11.90;;;;;;;17.66;99.94;97886.05;274104;1273;23465;-81
2023/10/21 16:07:43;;;;;;;21.50;10.80;;;;;;;17.52;100.00;97891.45;273655;1267;22385;-81
2023/10/21 16:13:45;;;;;;;25.00;10.70;;;;;;;17.41;100.00;97900.10;273847;1270;23280;-81
2023/10/21 16:19:47;;;;;;;18.80;9.50;;;;;;;17.23;100.00;97917.69;273648;1272;22226;-83
2023/10/21 16:25:49;;;;;;;18.50;10.80;;;;;;;16.98;100.00;97925.81;273792;1269;22142;-82
2023/10/21 16:31:51;;;;;;;22.40;10.50;;;;;;;16.83;100.00;97928.02;273542;1270;22460;-81
2023/10/21 16:37:53;;;;;;;26.20;11.70;;;;;;;16.66;100.00;97931.15;273543;1269;22332;-82
2023/10/21 16:43:56;;;;;;;22.20;13.10;;;;;;;16.53;100.00;97935.49;273622;1267;22410;-82
2023/10/21 16:49:57;;;;;;;22.80;13.00;;;;;;;16.40;100.00;97943.25;273605;1267;22376;-81
2023/10/21 16:55:59;;;;;;;30.10;15.40;;;;;;;16.31;100.00;97951.02;273642;1267;22393;-81
2023/10/21 17:02:02;;;;;;;22.90;14.80;;;;;;;16.21;100.00;97947.67;263863;1267;10001793;-79
2023/10/21 17:08:04;;;;;;;25.60;16.50;;;;;;;15.94;100.00;97946.82;273506;1268;22393;-82
2023/10/21 17:14:32;;;;;;;35.10;17.80;;;;;;;15.70;100.00;97961.52;272397;1267;22536;-81
2023/10/21 17:20:34;;;;;;;60.20;30.10;;;;;;;15.50;100.00;97970.98;273634;1267;22280;-81
2023/10/21 17:26:36;;;;;;;60.40;32.70;;;;;;;15.47;100.00;97973.73;273660;1267;22263;-81
2023/10/21 17:32:38;;;;;;;45.20;22.30;;;;;;;15.46;100.00;97980.79;273658;1267;22166;-82
2023/10/21 17:38:40;;;;;;;42.90;24.80;;;;;;;15.30;100.00;97985.87;273637;1267;22190;-81
2023/10/21 17:44:42;;;;;;;53.30;28.40;;;;;;;15.18;100.00;97987.34;273632;1267;22436;-81
2023/10/21 17:50:44;;;;;;;52.60;28.40;;;;;;;15.11;100.00;97993.41;273577;1270;22453;-81
2023/10/21 17:56:48;;;;;;;48.20;29.10;;;;;;;15.02;100.00;98002.51;271784;1267;313528;-83
2023/10/21 18:02:52;;;;;;;48.70;28.00;;;;;;;14.88;100.00;97999.73;272779;1267;22461;-82
2023/10/21 18:08:59;;;;;;;48.50;27.20;;;;;;;14.66;100.00;98009.98;273678;1267;22478;-81
2023/10/21 18:15:02;;;;;;;42.80;25.20;;;;;;;14.49;100.00;98029.45;273633;1267;22373;-81
2023/10/21 18:21:04;;;;;;;44.60;25.10;;;;;;;14.36;100.00;98038.52;273803;1267;22192;-82
2023/10/21 18:27:11;;;;;;;40.60;22.50;;;;;;;14.25;100.00;98036.73;273723;1267;22904;-83
2023/10/21 18:33:15;;;;;;;38.90;22.90;;;;;;;14.19;100.00;98034.14;273980;1267;22202;-81
2023/10/21 18:39:18;;;;;;;35.80;20.50;;;;;;;14.19;100.00;98042.17;273870;1267;22268;-81
2023/10/21 18:45:35;;;;;;;38.60;21.20;;;;;;;14.18;100.00;98044.02;273654;1267;22453;-81
2023/10/21 18:51:38;;;;;;;39.90;23.40;;;;;;;14.15;100.00;98042.41;273784;1267;22208;-81
2023/10/21 18:57:48;;;;;;;43.90;23.90;;;;;;;14.07;100.00;98035.86;273695;1267;23523;-81
2023/10/21 19:03:51;;;;;;;36.70;21.50;;;;;;;14.02;100.00;98027.40;273656;1267;22387;-81
2023/10/21 19:09:59;;;;;;;39.40;22.20;;;;;;;13.98;100.00;98032.73;273812;1267;22202;-81
2023/10/21 19:16:01;;;;;;;31.20;19.80;;;;;;;13.93;100.00;98030.85;273829;1270;23171;-81
2023/10/21 19:22:03;;;;;;;40.20;23.90;;;;;;;13.91;100.00;98037.81;273692;1267;22172;-81
2023/10/21 19:28:10;;;;;;;45.40;24.20;;;;;;;13.89;100.00;98038.39;273720;1267;23474;-81
2023/10/21 19:34:12;;;;;;;49.10;25.30;;;;;;;13.83;100.00;98036.13;273694;1275;22177;-81
2023/10/21 19:40:15;;;;;;;45.80;25.70;;;;;;;13.79;100.00;98031.17;273666;1264;22395;-81
2023/10/21 19:46:20;;;;;;;38.60;23.90;;;;;;;13.76;100.00;98037.60;273648;1267;22192;-80
2023/10/21 19:52:39;;;;;;;40.10;25.10;;;;;;;13.78;100.00;98038.42;273767;1267;22904;-81
2023/10/21 19:58:42;;;;;;;46.10;27.60;;;;;;;13.75;100.00;98033.52;273902;1268;22236;-81
2023/10/21 20:04:44;;;;;;;43.40;25.80;;;;;;;13.70;100.00;98029.53;273706;1253;22773;-81
2023/10/21 20:10:46;;;;;;;32.20;21.70;;;;;;;13.67;100.00;98023.91;273638;1267;22385;-81
2023/10/21 20:16:47;;;;;;;44.40;26.40;;;;;;;13.70;100.00;98025.13;273637;1267;22534;-81
2023/10/21 20:22:55;;;;;;;43.70;25.50;;;;;;;13.74;100.00;98026.55;273869;1263;23435;-81
2023/10/21 20:28:57;;;;;;;39.50;23.70;;;;;;;13.76;100.00;98033.98;273608;1267;22554;-82
2023/10/21 20:35:05;;;;;;;36.90;22.70;;;;;;;13.77;100.00;98044.73;274185;1267;22467;-81
2023/10/21 20:41:11;;;;;;;37.60;22.00;;;;;;;13.79;100.00;98040.08;274133;1267;22358;-80
2023/10/21 20:47:13;;;;;;;30.60;21.20;;;;;;;13.76;100.00;98037.52;273771;1267;22400;-81
2023/10/21 20:53:15;;;;;;;32.90;22.10;;;;;;;13.77;100.00;98035.77;274371;1267;22239;-80
2023/10/21 20:59:27;;;;;;;23.90;11.80;;;;;;;13.81;100.00;98035.85;274198;1256;22209;-81
2023/10/21 21:05:30;;;;;;;28.40;15.90;;;;;;;13.92;100.00;98036.22;274110;1267;22215;-82
2023/10/21 21:11:32;;;;;;;32.10;20.10;;;;;;;13.96;100.00;98038.58;272558;1267;22324;-83
2023/10/21 21:17:34;;;;;;;30.80;17.40;;;;;;;13.92;100.00;98046.05;271765;1266;22211;-83
2023/10/21 21:23:36;;;;;;;31.50;19.00;;;;;;;13.95;100.00;98039.38;273664;1267;22391;-82
2023/10/21 21:29:40;;;;;;;34.80;19.60;;;;;;;14.02;100.00;98036.27;274004;1267;22166;-83
2023/10/21 21:35:42;;;;;;;32.10;17.70;;;;;;;14.05;100.00;98029.15;273653;1267;22428;-82
2023/10/21 21:41:44;;;;;;;27.60;17.90;;;;;;;14.07;100.00;98025.09;273536;1266;23332;-82
2023/10/21 21:47:46;;;;;;;25.80;16.70;;;;;;;14.11;100.00;98023.22;273777;1267;22183;-82
2023/10/21 21:53:58;;;;;;;25.70;17.00;;;;;;;14.12;100.00;98018.23;273741;1267;23573;-83
2023/10/21 22:00:05;;;;;;;30.60;16.00;;;;;;;14.12;100.00;98017.38;273847;1267;22274;-82
2023/10/21 22:06:12;;;;;;;23.20;12.60;;;;;;;14.12;100.00;98012.90;273729;1266;22192;-82
2023/10/21 22:12:21;;;;;;;23.50;12.80;;;;;;;14.13;100.00;98001.64;273696;1265;23220;-82
2023/10/21 22:18:24;;;;;;;18.00;10.40;;;;;;;14.17;100.00;97995.58;273703;1266;22370;-81
2023/10/21 22:24:30;;;;;;;17.70;10.60;;;;;;;14.21;100.00;97996.92;273765;1267;22363;-81
2023/10/21 22:30:32;;;;;;;19.80;10.20;;;;;;;14.20;100.00;98003.70;274039;1269;22198;-81
2023/10/21 22:36:34;;;;;;;19.20;10.70;;;;;;;14.22;100.00;98001.31;273916;1268;22339;-82
2023/10/21 22:42:35;;;;;;;19.40;10.70;;;;;;;14.24;100.00;98003.73;273730;1267;22342;-81
2023/10/21 22:48:37;;;;;;;19.20;10.20;;;;;;;14.25;100.00;98000.56;273724;1266;22186;-82
2023/10/21 22:54:45;;;;;;;15.90;10.70;;;;;;;14.24;100.00;97995.55;274018;1267;22361;-83
2023/10/21 23:00:47;;;;;;;19.80;10.00;;;;;;;14.24;100.00;97992.39;273723;1267;22358;-84
2023/10/21 23:06:50;;;;;;;15.90;10.30;;;;;;;14.23;100.00;97988.85;273784;1267;22205;-83
2023/10/21 23:12:52;;;;;;;29.50;17.70;;;;;;;14.22;100.00;97984.95;273679;1266;22399;-84
2023/10/21 23:19:09;;;;;;;33.00;22.00;;;;;;;14.17;100.00;97974.66;273650;1267;22417;-83
2023/10/21 23:25:16;;;;;;;32.10;21.40;;;;;;;14.11;100.00;97975.49;273683;1267;22437;-83
2023/10/21 23:31:24;;;;;;;30.00;20.60;;;;;;;14.06;100.00;97979.51;273808;1267;22217;-83
2023/10/21 23:37:27;;;;;;;32.50;19.40;;;;;;;14.05;100.00;97969.93;273914;1267;22835;-83
2023/10/21 23:43:29;;;;;;;29.70;17.60;;;;;;;14.06;100.00;97965.29;273725;1267;22222;-83
2023/10/21 23:49:57;;;;;;;23.30;16.80;;;;;;;14.05;100.00;97962.62;273928;1267;22239;-82
2023/10/21 23:56:06;;;;;;;29.80;18.00;;;;;;;14.09;100.00;97965.63;273039;1267;22295;-83
